sensor_id;sensor_type;location;lat;lon;timestamp;P1;durP1;ratioP1;P2;durP2;ratioP2
34204;SDS011;20471;49.680;20.074;2022-12-29T00:01:41;9.85;;;5.92;;
34204;SDS011;20471;49.680;20.074;2022-12-29T00:04:09;11.78;;;6.03;;
34204;SDS011;20471;49.680;20.074;2022-12-29T00:06:39;9.60;;;5.55;;
34204;SDS011;20471;49.680;20.074;2022-12-29T00:09:06;10.18;;;5.25;;
34204;SDS011;20471;49.680;20.074;2022-12-29T00:11:33;11.48;;;6.35;;
34204;SDS011;20471;49.680;20.074;2022-12-29T00:14:00;10.55;;;5.87;;
34204;SDS011;20471;49.680;20.074;2022-12-29T00:16:45;13.60;;;6.03;;
34204;SDS011;20471;49.680;20.074;2022-12-29T00:19:12;12.05;;;6.00;;
34204;SDS011;20471;49.680;20.074;2022-12-29T00:21:57;10.35;;;5.83;;
34204;SDS011;20471;49.680;20.074;2022-12-29T00:24:43;11.38;;;6.17;;
34204;SDS011;20471;49.680;20.074;2022-12-29T00:27:29;13.85;;;7.05;;
34204;SDS011;20471;49.680;20.074;2022-12-29T00:33:12;15.72;;;6.78;;
34204;SDS011;20471;49.680;20.074;2022-12-29T00:38:51;10.20;;;6.20;;
34204;SDS011;20471;49.680;20.074;2022-12-29T00:41:43;12.85;;;6.25;;
34204;SDS011;20471;49.680;20.074;2022-12-29T00:44:28;14.05;;;7.05;;
34204;SDS011;20471;49.680;20.074;2022-12-29T00:46:54;11.03;;;6.05;;
34204;SDS011;20471;49.680;20.074;2022-12-29T00:49:21;12.90;;;7.25;;
34204;SDS011;20471;49.680;20.074;2022-12-29T00:57:02;41.73;;;14.80;;
34204;SDS011;20471;49.680;20.074;2022-12-29T00:59:30;17.57;;;8.33;;
34204;SDS011;20471;49.680;20.074;2022-12-29T01:01:57;13.62;;;7.70;;
34204;SDS011;20471;49.680;20.074;2022-12-29T01:04:24;12.90;;;7.55;;
34204;SDS011;20471;49.680;20.074;2022-12-29T01:06:52;17.27;;;8.13;;
34204;SDS011;20471;49.680;20.074;2022-12-29T01:09:19;12.07;;;6.95;;
34204;SDS011;20471;49.680;20.074;2022-12-29T01:12:05;11.75;;;6.47;;
34204;SDS011;20471;49.680;20.074;2022-12-29T01:14:33;12.25;;;7.33;;
34204;SDS011;20471;49.680;20.074;2022-12-29T01:17:00;27.70;;;9.90;;
34204;SDS011;20471;49.680;20.074;2022-12-29T01:19:27;17.20;;;7.72;;
34204;SDS011;20471;49.680;20.074;2022-12-29T01:21:54;12.37;;;6.92;;
34204;SDS011;20471;49.680;20.074;2022-12-29T01:24:21;14.10;;;9.50;;
34204;SDS011;20471;49.680;20.074;2022-12-29T01:26:48;11.43;;;6.20;;
34204;SDS011;20471;49.680;20.074;2022-12-29T01:29:15;32.88;;;11.28;;
34204;SDS011;20471;49.680;20.074;2022-12-29T01:31:42;32.85;;;11.15;;
34204;SDS011;20471;49.680;20.074;2022-12-29T01:34:09;18.12;;;9.03;;
34204;SDS011;20471;49.680;20.074;2022-12-29T01:36:35;11.03;;;6.47;;
34204;SDS011;20471;49.680;20.074;2022-12-29T01:39:02;12.93;;;7.25;;
34204;SDS011;20471;49.680;20.074;2022-12-29T01:41:29;13.05;;;7.42;;
34204;SDS011;20471;49.680;20.074;2022-12-29T01:43:57;12.73;;;6.72;;
34204;SDS011;20471;49.680;20.074;2022-12-29T01:46:34;10.53;;;6.10;;
34204;SDS011;20471;49.680;20.074;2022-12-29T01:51:45;13.40;;;6.62;;
34204;SDS011;20471;49.680;20.074;2022-12-29T01:54:25;13.50;;;5.45;;
34204;SDS011;20471;49.680;20.074;2022-12-29T01:57:14;14.03;;;6.60;;
34204;SDS011;20471;49.680;20.074;2022-12-29T01:59:46;12.88;;;6.72;;
34204;SDS011;20471;49.680;20.074;2022-12-29T02:02:17;12.88;;;7.37;;
34204;SDS011;20471;49.680;20.074;2022-12-29T02:04:44;9.30;;;6.62;;
34204;SDS011;20471;49.680;20.074;2022-12-29T02:07:14;16.20;;;6.75;;
34204;SDS011;20471;49.680;20.074;2022-12-29T02:09:48;19.67;;;8.75;;
34204;SDS011;20471;49.680;20.074;2022-12-29T02:12:17;15.38;;;6.80;;
34204;SDS011;20471;49.680;20.074;2022-12-29T02:14:46;10.70;;;5.20;;
34204;SDS011;20471;49.680;20.074;2022-12-29T02:29:35;9.73;;;5.33;;
34204;SDS011;20471;49.680;20.074;2022-12-29T02:44:51;11.55;;;5.70;;
34204;SDS011;20471;49.680;20.074;2022-12-29T02:53:01;9.98;;;5.58;;
34204;SDS011;20471;49.680;20.074;2022-12-29T02:55:34;10.15;;;5.75;;
34204;SDS011;20471;49.680;20.074;2022-12-29T03:00:51;10.00;;;5.12;;
34204;SDS011;20471;49.680;20.074;2022-12-29T03:06:09;9.03;;;5.47;;
34204;SDS011;20471;49.680;20.074;2022-12-29T03:11:33;10.70;;;5.92;;
34204;SDS011;20471;49.680;20.074;2022-12-29T03:14:31;16.35;;;7.90;;
34204;SDS011;20471;49.680;20.074;2022-12-29T03:17:24;9.23;;;5.50;;
34204;SDS011;20471;49.680;20.074;2022-12-29T03:22:29;10.23;;;6.10;;
34204;SDS011;20471;49.680;20.074;2022-12-29T03:25:04;8.13;;;5.10;;
34204;SDS011;20471;49.680;20.074;2022-12-29T03:27:40;8.93;;;4.33;;
34204;SDS011;20471;49.680;20.074;2022-12-29T03:30:16;9.08;;;4.72;;
34204;SDS011;20471;49.680;20.074;2022-12-29T03:32:46;11.00;;;5.65;;
34204;SDS011;20471;49.680;20.074;2022-12-29T03:35:20;10.25;;;5.92;;
34204;SDS011;20471;49.680;20.074;2022-12-29T03:37:56;8.15;;;5.00;;
34204;SDS011;20471;49.680;20.074;2022-12-29T03:40:40;8.90;;;4.72;;
34204;SDS011;20471;49.680;20.074;2022-12-29T03:43:10;10.68;;;5.40;;
34204;SDS011;20471;49.680;20.074;2022-12-29T03:45:38;16.73;;;8.35;;
34204;SDS011;20471;49.680;20.074;2022-12-29T03:48:05;13.72;;;7.42;;
34204;SDS011;20471;49.680;20.074;2022-12-29T03:50:32;12.68;;;6.50;;
34204;SDS011;20471;49.680;20.074;2022-12-29T03:52:58;10.85;;;6.08;;
34204;SDS011;20471;49.680;20.074;2022-12-29T03:55:25;8.80;;;5.10;;
34204;SDS011;20471;49.680;20.074;2022-12-29T03:57:52;8.70;;;5.37;;
34204;SDS011;20471;49.680;20.074;2022-12-29T04:00:18;8.70;;;4.97;;
34204;SDS011;20471;49.680;20.074;2022-12-29T04:02:45;10.13;;;5.83;;
34204;SDS011;20471;49.680;20.074;2022-12-29T04:05:12;9.18;;;5.12;;
34204;SDS011;20471;49.680;20.074;2022-12-29T04:07:39;7.10;;;5.00;;
34204;SDS011;20471;49.680;20.074;2022-12-29T04:10:06;7.67;;;4.58;;
34204;SDS011;20471;49.680;20.074;2022-12-29T04:12:33;9.10;;;5.37;;
34204;SDS011;20471;49.680;20.074;2022-12-29T04:15:00;7.37;;;4.92;;
34204;SDS011;20471;49.680;20.074;2022-12-29T04:17:26;7.20;;;4.33;;
34204;SDS011;20471;49.680;20.074;2022-12-29T04:19:53;8.35;;;4.45;;
34204;SDS011;20471;49.680;20.074;2022-12-29T04:22:21;9.08;;;4.67;;
34204;SDS011;20471;49.680;20.074;2022-12-29T04:24:48;9.10;;;4.80;;
34204;SDS011;20471;49.680;20.074;2022-12-29T04:27:14;9.43;;;5.25;;
34204;SDS011;20471;49.680;20.074;2022-12-29T04:29:41;8.28;;;5.30;;
34204;SDS011;20471;49.680;20.074;2022-12-29T04:32:08;8.33;;;4.80;;
34204;SDS011;20471;49.680;20.074;2022-12-29T04:34:34;9.43;;;5.05;;
34204;SDS011;20471;49.680;20.074;2022-12-29T04:37:01;10.60;;;4.95;;
34204;SDS011;20471;49.680;20.074;2022-12-29T04:39:28;8.23;;;4.97;;
34204;SDS011;20471;49.680;20.074;2022-12-29T04:41:54;9.40;;;5.28;;
34204;SDS011;20471;49.680;20.074;2022-12-29T04:44:21;7.47;;;4.60;;
34204;SDS011;20471;49.680;20.074;2022-12-29T04:46:47;9.13;;;5.05;;
34204;SDS011;20471;49.680;20.074;2022-12-29T04:49:14;8.43;;;5.20;;
34204;SDS011;20471;49.680;20.074;2022-12-29T04:51:41;8.48;;;4.87;;
34204;SDS011;20471;49.680;20.074;2022-12-29T04:54:07;10.40;;;4.78;;
34204;SDS011;20471;49.680;20.074;2022-12-29T04:56:34;8.28;;;4.95;;
34204;SDS011;20471;49.680;20.074;2022-12-29T04:59:01;7.47;;;4.95;;
34204;SDS011;20471;49.680;20.074;2022-12-29T05:01:27;8.23;;;4.62;;
34204;SDS011;20471;49.680;20.074;2022-12-29T05:03:54;8.38;;;4.62;;
34204;SDS011;20471;49.680;20.074;2022-12-29T05:06:20;8.03;;;4.97;;
34204;SDS011;20471;49.680;20.074;2022-12-29T05:08:47;10.93;;;5.50;;
34204;SDS011;20471;49.680;20.074;2022-12-29T05:11:14;8.65;;;5.17;;
34204;SDS011;20471;49.680;20.074;2022-12-29T05:13:40;7.35;;;5.33;;
34204;SDS011;20471;49.680;20.074;2022-12-29T05:16:07;10.40;;;5.28;;
34204;SDS011;20471;49.680;20.074;2022-12-29T05:18:33;10.18;;;4.78;;
34204;SDS011;20471;49.680;20.074;2022-12-29T05:21:00;7.90;;;4.50;;
34204;SDS011;20471;49.680;20.074;2022-12-29T05:23:27;9.98;;;5.33;;
34204;SDS011;20471;49.680;20.074;2022-12-29T05:25:53;8.40;;;4.90;;
34204;SDS011;20471;49.680;20.074;2022-12-29T05:28:20;8.33;;;4.75;;
34204;SDS011;20471;49.680;20.074;2022-12-29T05:30:50;8.60;;;5.10;;
34204;SDS011;20471;49.680;20.074;2022-12-29T05:33:17;8.50;;;4.75;;
34204;SDS011;20471;49.680;20.074;2022-12-29T05:35:45;10.25;;;5.30;;
34204;SDS011;20471;49.680;20.074;2022-12-29T05:38:12;7.50;;;4.80;;
34204;SDS011;20471;49.680;20.074;2022-12-29T05:40:39;7.72;;;4.75;;
34204;SDS011;20471;49.680;20.074;2022-12-29T05:43:05;9.63;;;4.97;;
34204;SDS011;20471;49.680;20.074;2022-12-29T05:45:32;8.48;;;4.78;;
34204;SDS011;20471;49.680;20.074;2022-12-29T05:47:58;9.40;;;4.65;;
34204;SDS011;20471;49.680;20.074;2022-12-29T05:50:25;11.28;;;5.00;;
34204;SDS011;20471;49.680;20.074;2022-12-29T05:52:52;7.08;;;4.22;;
34204;SDS011;20471;49.680;20.074;2022-12-29T05:55:18;6.35;;;4.42;;
34204;SDS011;20471;49.680;20.074;2022-12-29T05:57:46;7.87;;;4.12;;
34204;SDS011;20471;49.680;20.074;2022-12-29T06:00:13;9.30;;;4.10;;
34204;SDS011;20471;49.680;20.074;2022-12-29T06:02:40;7.00;;;3.90;;
34204;SDS011;20471;49.680;20.074;2022-12-29T06:05:08;8.80;;;4.08;;
34204;SDS011;20471;49.680;20.074;2022-12-29T06:07:35;5.37;;;3.85;;
34204;SDS011;20471;49.680;20.074;2022-12-29T06:10:02;8.38;;;4.33;;
34204;SDS011;20471;49.680;20.074;2022-12-29T06:12:30;5.53;;;4.00;;
34204;SDS011;20471;49.680;20.074;2022-12-29T06:14:56;7.45;;;4.55;;
34204;SDS011;20471;49.680;20.074;2022-12-29T06:17:23;8.53;;;4.83;;
34204;SDS011;20471;49.680;20.074;2022-12-29T06:19:50;7.22;;;4.70;;
34204;SDS011;20471;49.680;20.074;2022-12-29T06:22:17;12.37;;;5.78;;
34204;SDS011;20471;49.680;20.074;2022-12-29T06:24:43;8.20;;;4.70;;
34204;SDS011;20471;49.680;20.074;2022-12-29T06:27:10;9.33;;;4.92;;
34204;SDS011;20471;49.680;20.074;2022-12-29T06:29:36;10.23;;;5.08;;
34204;SDS011;20471;49.680;20.074;2022-12-29T06:32:05;7.40;;;4.50;;
34204;SDS011;20471;49.680;20.074;2022-12-29T06:34:32;7.45;;;4.55;;
34204;SDS011;20471;49.680;20.074;2022-12-29T06:36:59;9.38;;;4.97;;
34204;SDS011;20471;49.680;20.074;2022-12-29T06:39:26;7.87;;;4.97;;
34204;SDS011;20471;49.680;20.074;2022-12-29T06:41:53;8.25;;;5.12;;
34204;SDS011;20471;49.680;20.074;2022-12-29T06:44:21;8.08;;;4.97;;
34204;SDS011;20471;49.680;20.074;2022-12-29T06:46:48;11.30;;;5.90;;
34204;SDS011;20471;49.680;20.074;2022-12-29T06:49:14;8.93;;;5.53;;
34204;SDS011;20471;49.680;20.074;2022-12-29T06:51:41;11.45;;;6.28;;
34204;SDS011;20471;49.680;20.074;2022-12-29T06:54:08;7.90;;;5.60;;
34204;SDS011;20471;49.680;20.074;2022-12-29T06:56:34;10.43;;;6.17;;
34204;SDS011;20471;49.680;20.074;2022-12-29T06:59:01;13.13;;;6.70;;
34204;SDS011;20471;49.680;20.074;2022-12-29T07:01:28;9.53;;;5.87;;
34204;SDS011;20471;49.680;20.074;2022-12-29T07:03:55;13.15;;;6.50;;
34204;SDS011;20471;49.680;20.074;2022-12-29T07:06:23;11.83;;;6.87;;
34204;SDS011;20471;49.680;20.074;2022-12-29T07:08:49;12.00;;;6.80;;
34204;SDS011;20471;49.680;20.074;2022-12-29T07:11:16;14.07;;;7.35;;
34204;SDS011;20471;49.680;20.074;2022-12-29T07:13:43;11.63;;;6.78;;
34204;SDS011;20471;49.680;20.074;2022-12-29T07:16:10;12.07;;;6.90;;
34204;SDS011;20471;49.680;20.074;2022-12-29T07:18:36;11.30;;;6.95;;
34204;SDS011;20471;49.680;20.074;2022-12-29T07:21:03;13.18;;;7.37;;
34204;SDS011;20471;49.680;20.074;2022-12-29T07:23:30;13.05;;;7.42;;
34204;SDS011;20471;49.680;20.074;2022-12-29T07:26:01;12.55;;;6.55;;
34204;SDS011;20471;49.680;20.074;2022-12-29T07:28:34;12.63;;;7.42;;
34204;SDS011;20471;49.680;20.074;2022-12-29T07:31:03;10.32;;;7.15;;
34204;SDS011;20471;49.680;20.074;2022-12-29T07:33:31;11.85;;;7.65;;
34204;SDS011;20471;49.680;20.074;2022-12-29T07:35:58;14.15;;;6.87;;
34204;SDS011;20471;49.680;20.074;2022-12-29T07:38:25;11.30;;;7.15;;
34204;SDS011;20471;49.680;20.074;2022-12-29T07:40:55;12.58;;;6.85;;
34204;SDS011;20471;49.680;20.074;2022-12-29T07:43:23;10.23;;;7.07;;
34204;SDS011;20471;49.680;20.074;2022-12-29T07:45:50;11.38;;;7.12;;
34204;SDS011;20471;49.680;20.074;2022-12-29T07:48:17;10.13;;;6.70;;
34204;SDS011;20471;49.680;20.074;2022-12-29T07:50:43;10.43;;;6.50;;
34204;SDS011;20471;49.680;20.074;2022-12-29T07:53:10;10.48;;;6.35;;
34204;SDS011;20471;49.680;20.074;2022-12-29T07:55:37;12.85;;;7.55;;
34204;SDS011;20471;49.680;20.074;2022-12-29T07:58:04;15.20;;;8.48;;
34204;SDS011;20471;49.680;20.074;2022-12-29T08:00:30;9.30;;;6.08;;
34204;SDS011;20471;49.680;20.074;2022-12-29T08:02:57;15.85;;;7.67;;
34204;SDS011;20471;49.680;20.074;2022-12-29T08:05:24;11.85;;;6.60;;
34204;SDS011;20471;49.680;20.074;2022-12-29T08:07:51;16.97;;;9.38;;
34204;SDS011;20471;49.680;20.074;2022-12-29T08:10:18;12.30;;;6.85;;
34204;SDS011;20471;49.680;20.074;2022-12-29T08:12:45;10.82;;;6.58;;
34204;SDS011;20471;49.680;20.074;2022-12-29T08:15:11;11.08;;;7.42;;
34204;SDS011;20471;49.680;20.074;2022-12-29T08:17:38;9.48;;;6.00;;
34204;SDS011;20471;49.680;20.074;2022-12-29T08:20:05;11.50;;;6.53;;
34204;SDS011;20471;49.680;20.074;2022-12-29T08:22:33;11.85;;;6.35;;
34204;SDS011;20471;49.680;20.074;2022-12-29T08:25:00;12.15;;;7.15;;
34204;SDS011;20471;49.680;20.074;2022-12-29T08:27:27;12.20;;;6.65;;
34204;SDS011;20471;49.680;20.074;2022-12-29T08:29:54;11.35;;;6.47;;
34204;SDS011;20471;49.680;20.074;2022-12-29T08:32:20;14.23;;;7.35;;
34204;SDS011;20471;49.680;20.074;2022-12-29T08:34:47;14.68;;;7.90;;
34204;SDS011;20471;49.680;20.074;2022-12-29T08:37:14;14.20;;;7.05;;
34204;SDS011;20471;49.680;20.074;2022-12-29T08:39:40;12.68;;;7.45;;
34204;SDS011;20471;49.680;20.074;2022-12-29T08:42:07;12.10;;;7.35;;
34204;SDS011;20471;49.680;20.074;2022-12-29T08:44:34;12.50;;;7.45;;
34204;SDS011;20471;49.680;20.074;2022-12-29T08:47:00;12.07;;;7.40;;
34204;SDS011;20471;49.680;20.074;2022-12-29T08:49:27;14.10;;;7.72;;
34204;SDS011;20471;49.680;20.074;2022-12-29T08:51:53;14.53;;;7.22;;
34204;SDS011;20471;49.680;20.074;2022-12-29T08:54:20;11.10;;;6.90;;
34204;SDS011;20471;49.680;20.074;2022-12-29T08:56:47;10.98;;;6.87;;
34204;SDS011;20471;49.680;20.074;2022-12-29T08:59:13;11.43;;;7.05;;
34204;SDS011;20471;49.680;20.074;2022-12-29T09:01:40;11.93;;;7.08;;
34204;SDS011;20471;49.680;20.074;2022-12-29T09:04:07;10.60;;;7.10;;
34204;SDS011;20471;49.680;20.074;2022-12-29T09:06:34;11.53;;;7.42;;
34204;SDS011;20471;49.680;20.074;2022-12-29T09:09:01;12.30;;;7.20;;
34204;SDS011;20471;49.680;20.074;2022-12-29T09:11:29;11.78;;;6.58;;
34204;SDS011;20471;49.680;20.074;2022-12-29T09:13:55;11.30;;;6.35;;
34204;SDS011;20471;49.680;20.074;2022-12-29T09:16:23;10.28;;;6.10;;
34204;SDS011;20471;49.680;20.074;2022-12-29T09:18:50;14.07;;;6.60;;
34204;SDS011;20471;49.680;20.074;2022-12-29T09:21:17;8.85;;;5.78;;
34204;SDS011;20471;49.680;20.074;2022-12-29T09:23:43;10.38;;;6.30;;
34204;SDS011;20471;49.680;20.074;2022-12-29T09:26:10;11.43;;;6.87;;
34204;SDS011;20471;49.680;20.074;2022-12-29T09:28:37;10.50;;;6.30;;
34204;SDS011;20471;49.680;20.074;2022-12-29T09:31:04;10.80;;;6.28;;
34204;SDS011;20471;49.680;20.074;2022-12-29T09:33:31;11.22;;;6.92;;
34204;SDS011;20471;49.680;20.074;2022-12-29T09:36:01;12.78;;;7.85;;
34204;SDS011;20471;49.680;20.074;2022-12-29T09:38:28;11.57;;;7.08;;
34204;SDS011;20471;49.680;20.074;2022-12-29T09:46:40;12.20;;;6.40;;
34204;SDS011;20471;49.680;20.074;2022-12-29T09:49:30;12.25;;;7.25;;
34204;SDS011;20471;49.680;20.074;2022-12-29T09:52:13;9.30;;;6.22;;
34204;SDS011;20471;49.680;20.074;2022-12-29T09:54:55;11.48;;;7.05;;
34204;SDS011;20471;49.680;20.074;2022-12-29T10:00:13;11.88;;;6.87;;
34204;SDS011;20471;49.680;20.074;2022-12-29T10:02:44;11.95;;;6.90;;
34204;SDS011;20471;49.680;20.074;2022-12-29T10:05:35;14.30;;;7.37;;
34204;SDS011;20471;49.680;20.074;2022-12-29T10:25:29;12.90;;;8.03;;
34204;SDS011;20471;49.680;20.074;2022-12-29T10:28:01;16.90;;;8.55;;
34204;SDS011;20471;49.680;20.074;2022-12-29T10:30:33;11.53;;;7.70;;
34204;SDS011;20471;49.680;20.074;2022-12-29T10:33:07;13.50;;;7.83;;
34204;SDS011;20471;49.680;20.074;2022-12-29T10:35:38;12.70;;;8.20;;
34204;SDS011;20471;49.680;20.074;2022-12-29T10:38:13;14.65;;;8.63;;
34204;SDS011;20471;49.680;20.074;2022-12-29T10:41:00;13.68;;;7.60;;
34204;SDS011;20471;49.680;20.074;2022-12-29T10:43:45;12.98;;;8.48;;
34204;SDS011;20471;49.680;20.074;2022-12-29T10:46:17;13.57;;;7.43;;
34204;SDS011;20471;49.680;20.074;2022-12-29T10:48:52;51.10;;;28.55;;
34204;SDS011;20471;49.680;20.074;2022-12-29T10:51:23;26.37;;;17.17;;
34204;SDS011;20471;49.680;20.074;2022-12-29T10:54:02;15.55;;;10.00;;
34204;SDS011;20471;49.680;20.074;2022-12-29T10:56:43;13.18;;;8.35;;
34204;SDS011;20471;49.680;20.074;2022-12-29T10:59:21;12.28;;;8.05;;
34204;SDS011;20471;49.680;20.074;2022-12-29T11:02:04;14.47;;;8.58;;
34204;SDS011;20471;49.680;20.074;2022-12-29T11:04:41;13.18;;;8.30;;
34204;SDS011;20471;49.680;20.074;2022-12-29T11:07:31;12.40;;;8.30;;
34204;SDS011;20471;49.680;20.074;2022-12-29T11:12:57;13.70;;;8.58;;
34204;SDS011;20471;49.680;20.074;2022-12-29T11:15:28;12.05;;;8.50;;
34204;SDS011;20471;49.680;20.074;2022-12-29T11:20:56;15.35;;;9.03;;
34204;SDS011;20471;49.680;20.074;2022-12-29T11:23:37;15.20;;;9.55;;
34204;SDS011;20471;49.680;20.074;2022-12-29T11:28:47;13.40;;;8.98;;
34204;SDS011;20471;49.680;20.074;2022-12-29T11:34:22;15.75;;;10.38;;
34204;SDS011;20471;49.680;20.074;2022-12-29T11:37:11;13.90;;;8.85;;
34204;SDS011;20471;49.680;20.074;2022-12-29T11:39:43;14.87;;;9.80;;
34204;SDS011;20471;49.680;20.074;2022-12-29T11:45:06;11.90;;;8.45;;
34204;SDS011;20471;49.680;20.074;2022-12-29T11:50:24;14.28;;;8.65;;
34204;SDS011;20471;49.680;20.074;2022-12-29T11:52:58;15.97;;;8.80;;
34204;SDS011;20471;49.680;20.074;2022-12-29T11:55:29;13.98;;;8.45;;
34204;SDS011;20471;49.680;20.074;2022-12-29T11:57:58;14.33;;;8.33;;
34204;SDS011;20471;49.680;20.074;2022-12-29T12:00:28;14.43;;;8.60;;
34204;SDS011;20471;49.680;20.074;2022-12-29T12:03:10;15.68;;;8.80;;
34204;SDS011;20471;49.680;20.074;2022-12-29T12:13:58;13.20;;;8.25;;
34204;SDS011;20471;49.680;20.074;2022-12-29T12:22:01;12.58;;;7.87;;
34204;SDS011;20471;49.680;20.074;2022-12-29T12:24:54;11.20;;;7.37;;
34204;SDS011;20471;49.680;20.074;2022-12-29T12:27:39;14.18;;;7.90;;
34204;SDS011;20471;49.680;20.074;2022-12-29T12:30:24;14.80;;;7.70;;
34204;SDS011;20471;49.680;20.074;2022-12-29T12:33:15;13.77;;;8.70;;
34204;SDS011;20471;49.680;20.074;2022-12-29T12:39:03;16.97;;;7.50;;
34204;SDS011;20471;49.680;20.074;2022-12-29T12:41:51;12.18;;;7.05;;
34204;SDS011;20471;49.680;20.074;2022-12-29T12:58:35;15.00;;;9.65;;
34204;SDS011;20471;49.680;20.074;2022-12-29T13:01:18;13.58;;;8.18;;
34204;SDS011;20471;49.680;20.074;2022-12-29T13:12:55;13.48;;;6.45;;
34204;SDS011;20471;49.680;20.074;2022-12-29T13:18:52;10.18;;;6.85;;
34204;SDS011;20471;49.680;20.074;2022-12-29T13:35:26;23.52;;;11.40;;
34204;SDS011;20471;49.680;20.074;2022-12-29T13:43:23;15.08;;;8.75;;
34204;SDS011;20471;49.680;20.074;2022-12-29T13:45:55;12.90;;;8.33;;
34204;SDS011;20471;49.680;20.074;2022-12-29T13:48:37;12.18;;;7.97;;
34204;SDS011;20471;49.680;20.074;2022-12-29T13:51:08;12.55;;;7.83;;
34204;SDS011;20471;49.680;20.074;2022-12-29T13:53:56;12.30;;;8.33;;
34204;SDS011;20471;49.680;20.074;2022-12-29T14:02:03;16.02;;;9.23;;
34204;SDS011;20471;49.680;20.074;2022-12-29T14:04:55;15.05;;;10.38;;
34204;SDS011;20471;49.680;20.074;2022-12-29T14:07:38;22.80;;;12.68;;
34204;SDS011;20471;49.680;20.074;2022-12-29T14:10:06;21.80;;;12.05;;
34204;SDS011;20471;49.680;20.074;2022-12-29T14:12:59;20.10;;;11.50;;
34204;SDS011;20471;49.680;20.074;2022-12-29T14:15:43;21.25;;;12.58;;
34204;SDS011;20471;49.680;20.074;2022-12-29T14:18:29;23.57;;;13.15;;
34204;SDS011;20471;49.680;20.074;2022-12-29T14:20:59;20.77;;;13.15;;
34204;SDS011;20471;49.680;20.074;2022-12-29T14:23:44;21.87;;;13.45;;
34204;SDS011;20471;49.680;20.074;2022-12-29T14:26:17;20.97;;;12.45;;
34204;SDS011;20471;49.680;20.074;2022-12-29T14:28:57;19.62;;;12.20;;
34204;SDS011;20471;49.680;20.074;2022-12-29T14:31:52;19.77;;;11.18;;
34204;SDS011;20471;49.680;20.074;2022-12-29T14:36:59;22.13;;;12.25;;
34204;SDS011;20471;49.680;20.074;2022-12-29T14:39:30;18.60;;;11.78;;
34204;SDS011;20471;49.680;20.074;2022-12-29T14:47:27;21.48;;;12.07;;
34204;SDS011;20471;49.680;20.074;2022-12-29T14:52:44;20.40;;;11.73;;
34204;SDS011;20471;49.680;20.074;2022-12-29T14:55:43;25.23;;;12.73;;
34204;SDS011;20471;49.680;20.074;2022-12-29T14:58:16;21.30;;;12.78;;
34204;SDS011;20471;49.680;20.074;2022-12-29T15:00:52;20.05;;;12.55;;
34204;SDS011;20471;49.680;20.074;2022-12-29T15:03:21;22.35;;;13.35;;
34204;SDS011;20471;49.680;20.074;2022-12-29T15:05:55;20.00;;;12.83;;
34204;SDS011;20471;49.680;20.074;2022-12-29T15:08:28;23.32;;;13.78;;
34204;SDS011;20471;49.680;20.074;2022-12-29T15:11:01;22.22;;;12.80;;
34204;SDS011;20471;49.680;20.074;2022-12-29T15:13:35;21.62;;;11.85;;
34204;SDS011;20471;49.680;20.074;2022-12-29T15:16:26;22.05;;;13.30;;
34204;SDS011;20471;49.680;20.074;2022-12-29T15:18:57;28.50;;;15.50;;
34204;SDS011;20471;49.680;20.074;2022-12-29T15:21:26;27.52;;;15.98;;
34204;SDS011;20471;49.680;20.074;2022-12-29T15:24:01;21.37;;;13.35;;
34204;SDS011;20471;49.680;20.074;2022-12-29T15:26:39;20.72;;;12.07;;
34204;SDS011;20471;49.680;20.074;2022-12-29T15:32:24;20.52;;;11.30;;
34204;SDS011;20471;49.680;20.074;2022-12-29T15:34:53;21.80;;;11.90;;
34204;SDS011;20471;49.680;20.074;2022-12-29T15:37:28;19.57;;;11.60;;
34204;SDS011;20471;49.680;20.074;2022-12-29T15:40:01;21.15;;;12.37;;
34204;SDS011;20471;49.680;20.074;2022-12-29T15:45:14;22.22;;;13.20;;
34204;SDS011;20471;49.680;20.074;2022-12-29T15:47:42;20.82;;;12.70;;
34204;SDS011;20471;49.680;20.074;2022-12-29T15:53:01;19.17;;;10.80;;
34204;SDS011;20471;49.680;20.074;2022-12-29T15:58:05;23.85;;;14.80;;
34204;SDS011;20471;49.680;20.074;2022-12-29T16:00:48;22.42;;;12.78;;
34204;SDS011;20471;49.680;20.074;2022-12-29T16:03:22;24.23;;;12.68;;
34204;SDS011;20471;49.680;20.074;2022-12-29T16:05:53;22.70;;;14.10;;
34204;SDS011;20471;49.680;20.074;2022-12-29T16:08:36;18.92;;;12.03;;
34204;SDS011;20471;49.680;20.074;2022-12-29T16:11:15;22.00;;;12.68;;
34204;SDS011;20471;49.680;20.074;2022-12-29T16:13:49;25.70;;;14.25;;
34204;SDS011;20471;49.680;20.074;2022-12-29T16:16:19;20.77;;;12.70;;
34204;SDS011;20471;49.680;20.074;2022-12-29T16:18:50;36.53;;;20.00;;
34204;SDS011;20471;49.680;20.074;2022-12-29T16:21:22;29.18;;;16.48;;
34204;SDS011;20471;49.680;20.074;2022-12-29T16:23:53;31.77;;;17.60;;
34204;SDS011;20471;49.680;20.074;2022-12-29T16:26:24;24.92;;;15.55;;
34204;SDS011;20471;49.680;20.074;2022-12-29T16:28:54;29.02;;;16.15;;
34204;SDS011;20471;49.680;20.074;2022-12-29T16:31:24;27.52;;;15.58;;
34204;SDS011;20471;49.680;20.074;2022-12-29T16:34:10;29.30;;;16.23;;
34204;SDS011;20471;49.680;20.074;2022-12-29T16:36:54;27.32;;;16.30;;
34204;SDS011;20471;49.680;20.074;2022-12-29T16:39:38;27.32;;;16.57;;
34204;SDS011;20471;49.680;20.074;2022-12-29T16:45:31;28.57;;;16.67;;
34204;SDS011;20471;49.680;20.074;2022-12-29T16:50:51;29.75;;;16.32;;
34204;SDS011;20471;49.680;20.074;2022-12-29T16:53:40;29.50;;;18.32;;
34204;SDS011;20471;49.680;20.074;2022-12-29T16:56:20;32.20;;;19.55;;
34204;SDS011;20471;49.680;20.074;2022-12-29T16:58:57;28.70;;;17.73;;
34204;SDS011;20471;49.680;20.074;2022-12-29T17:01:37;32.17;;;19.57;;
34204;SDS011;20471;49.680;20.074;2022-12-29T17:04:05;31.45;;;18.75;;
34204;SDS011;20471;49.680;20.074;2022-12-29T17:06:35;32.78;;;17.73;;
34204;SDS011;20471;49.680;20.074;2022-12-29T17:09:02;26.05;;;14.13;;
34204;SDS011;20471;49.680;20.074;2022-12-29T17:16:51;26.15;;;15.35;;
34204;SDS011;20471;49.680;20.074;2022-12-29T17:19:19;24.87;;;14.60;;
34204;SDS011;20471;49.680;20.074;2022-12-29T17:21:55;24.57;;;14.28;;
34204;SDS011;20471;49.680;20.074;2022-12-29T17:24:22;24.40;;;14.33;;
34204;SDS011;20471;49.680;20.074;2022-12-29T17:26:50;25.72;;;15.18;;
34204;SDS011;20471;49.680;20.074;2022-12-29T17:31:57;29.32;;;18.20;;
34204;SDS011;20471;49.680;20.074;2022-12-29T17:34:25;29.80;;;16.73;;
34204;SDS011;20471;49.680;20.074;2022-12-29T17:36:51;29.02;;;17.07;;
34204;SDS011;20471;49.680;20.074;2022-12-29T17:39:18;44.60;;;25.48;;
34204;SDS011;20471;49.680;20.074;2022-12-29T17:41:45;40.80;;;26.80;;
34204;SDS011;20471;49.680;20.074;2022-12-29T17:44:19;43.63;;;27.48;;
34204;SDS011;20471;49.680;20.074;2022-12-29T17:46:48;44.15;;;26.65;;
34204;SDS011;20471;49.680;20.074;2022-12-29T17:49:16;93.45;;;39.60;;
34204;SDS011;20471;49.680;20.074;2022-12-29T17:51:44;206.75;;;71.28;;
34204;SDS011;20471;49.680;20.074;2022-12-29T17:54:19;169.62;;;65.40;;
34204;SDS011;20471;49.680;20.074;2022-12-29T17:56:49;88.37;;;39.75;;
34204;SDS011;20471;49.680;20.074;2022-12-29T17:59:16;55.90;;;29.80;;
34204;SDS011;20471;49.680;20.074;2022-12-29T18:01:45;55.65;;;28.07;;
34204;SDS011;20471;49.680;20.074;2022-12-29T18:04:14;64.07;;;29.52;;
34204;SDS011;20471;49.680;20.074;2022-12-29T18:06:45;236.30;;;63.83;;
34204;SDS011;20471;49.680;20.074;2022-12-29T18:09:12;146.20;;;45.25;;